Wolcott, VT (05680)

7:22 AM EDT on March 28, 2015 (GMT -0400)
N. Wolcott Rd/Rte 15 | | Change Station
CLOSE
Current Station
Personal Weather Station
Location: Wolcott, VT
Elevation: 755 ft
Nearby Weather Stations

Elev 755 ft 44.56 °N, 72.49 °W | Updated 4 seconds ago

Overcast
Overcast
25.3 °F
Feels Like 25 °F
N
0.0
Wind Variable Wind from North
Gusts 0.0 mph

Today
High -- | Low -- °F
--% Chance of Precip.
Yesterday
High -- | Low -- °F
Precip. -- in
6:38 AM 7:12 PM
First Quarter, 61% visible
Pressure 29.92 in
Visibility 10.0 miles
Clouds Overcast 2500 ft
Windchill 25 °F
Dew Point 6 °F
Humidity 42%
Rainfall 0.00 in
Snow Depth Not available.
UV 0 out of 12
Pollen .60 out of 12
Air Quality Not available.
Flu Activity Not available.
METAR KMVL 281054Z AUTO 34011KT 10SM OVC025 M06/M12 A2989 RMK AO2 SLP132 T10561117 TSNO

More Conditions Fewer Conditions

Pressure 29.92 in
Visibility 10.0 miles
Clouds Overcast 2500 ft
Windchill 25 °F
Dew Point 6 °F
Humidity 42%
Rainfall 0.00 in
Snow Depth Not available.
UV 0 out of 12
Pollen .60 out of 12
Air Quality Not available.
Flu Activity Not available.
METAR KMVL 281054Z AUTO 34011KT 10SM OVC025 M06/M12 A2989 RMK AO2 SLP132 T10561117 TSNO

More Conditions Fewer Conditions

10-Day Weather Forecast

Almanac

Astronomy

Mar. 28, 2015 Rise Set
Actual Time
Civil Twilight
Nautical Twilight
Astronomical Twilight
Moon
Length of Visible Light
Length of Day
Tomorrow will be .
, % of the Moon is Illuminated

Today's Extremes

State Highs State Lows

Community

WunderPhotos

Upload Photos

1,808,956 photos uploaded!

WunderBlogs® & News

Nearby

Air Quality

  Air Quality AQ Index Pollutant
Not available.

Snow Depth

Station Depth Elevation

Earthquake Activity

City Distance Mag. Time & Date
Minimum magnitude displayed is 2.5.

Coastal Water Temperatures

Place Temperature

Stations

Nearby Weather Stations

Station Location Temp. Windchill Dew Point Humidity Wind Precip. Elev Updated Type